YMAV/AVV METAR and TAF weather

Enter ICAO airport designator
Station Type Date Time Source
YMAV METAR 2018/12/13 22:00 UTC NOAA

YMAV 132200Z AUTO 33007KT 9999 // OVC015 18/15 Q1003


Station Type Date Time Source
YMAV Decoded METAR 2018/12/13 22:00 UTC NOAA

Error!

Station Type Date Time Source
YMAV TAF 2018/12/13 19:24 UTC NOAA

TAF
AMD TAF
AMD YMAV 131921Z 1319/1418 VRB05KT 9999 BKN010
BECMG 1322/1324 VRB05KT 9000 RA SCT010 BKN025
FM140700 20009KT 9999 -SHRA SCT015 SCT030
FM141400 VRB05KT 9999 SCT004 BKN008
TEMPO 1323/1407 3000 RA BKN008 INTER 1407/1414 6000 SHRA SCT012
TEMPO 1414/1418 5000 SHRA BKN004


Example: see airport list